sensor_id;sensor_type;location;lat;lon;timestamp;pressure;altitude;pressure_sealevel;temperature
77223;BMP280;66218;48.928;9.140;2023-05-10T00:01:26;97818.38;;;14.64
77223;BMP280;66218;48.928;9.140;2023-05-10T00:03:51;97824.63;;;14.57
77223;BMP280;66218;48.928;9.140;2023-05-10T00:06:16;97826.00;;;14.58
77223;BMP280;66218;48.928;9.140;2023-05-10T00:08:42;97826.69;;;14.52
77223;BMP280;66218;48.928;9.140;2023-05-10T00:11:07;97835.69;;;14.24
77223;BMP280;66218;48.928;9.140;2023-05-10T00:13:32;97835.69;;;14.24
77223;BMP280;66218;48.928;9.140;2023-05-10T00:15:58;97823.16;;;14.17
77223;BMP280;66218;48.928;9.140;2023-05-10T00:18:23;97819.72;;;14.20
77223;BMP280;66218;48.928;9.140;2023-05-10T00:20:48;97826.63;;;14.15
77223;BMP280;66218;48.928;9.140;2023-05-10T00:23:14;97821.75;;;14.08
77223;BMP280;66218;48.928;9.140;2023-05-10T00:25:39;97825.22;;;14.02
77223;BMP280;66218;48.928;9.140;2023-05-10T00:28:05;97821.72;;;13.98
77223;BMP280;66218;48.928;9.140;2023-05-10T00:30:30;97825.91;;;13.97
77223;BMP280;66218;48.928;9.140;2023-05-10T00:32:55;97828.59;;;13.82
77223;BMP280;66218;48.928;9.140;2023-05-10T00:35:20;97823.72;;;13.79
77223;BMP280;66218;48.928;9.140;2023-05-10T00:37:46;97819.53;;;13.72
77223;BMP280;66218;48.928;9.140;2023-05-10T00:40:12;97821.63;;;13.69
77223;BMP280;66218;48.928;9.140;2023-05-10T00:42:37;97820.88;;;13.60
77223;BMP280;66218;48.928;9.140;2023-05-10T00:45:03;97817.44;;;13.58
77223;BMP280;66218;48.928;9.140;2023-05-10T00:47:28;97829.16;;;13.54
77223;BMP280;66218;48.928;9.140;2023-05-10T00:49:54;97815.97;;;13.49
77223;BMP280;66218;48.928;9.140;2023-05-10T00:52:20;97818.72;;;13.49
77223;BMP280;66218;48.928;9.140;2023-05-10T00:54:50;97824.97;;;13.47
77223;BMP280;66218;48.928;9.140;2023-05-10T00:57:16;97824.97;;;13.47
77223;BMP280;66218;48.928;9.140;2023-05-10T00:59:42;97839.50;;;13.44
77223;BMP280;66218;48.928;9.140;2023-05-10T01:02:07;97839.44;;;13.36
77223;BMP280;66218;48.928;9.140;2023-05-10T01:04:32;97842.88;;;13.34
77223;BMP280;66218;48.928;9.140;2023-05-10T01:06:58;97851.84;;;13.24
77223;BMP280;66218;48.928;9.140;2023-05-10T01:09:23;97853.28;;;13.33
77223;BMP280;66218;48.928;9.140;2023-05-10T01:11:51;97853.28;;;13.33
77223;BMP280;66218;48.928;9.140;2023-05-10T01:14:18;97847.72;;;13.31
77223;BMP280;66218;48.928;9.140;2023-05-10T01:16:46;97849.09;;;13.30
77223;BMP280;66218;48.928;9.140;2023-05-10T01:19:22;97845.66;;;13.30
77223;BMP280;66218;48.928;9.140;2023-05-10T01:30:22;97861.00;;;13.53
77223;BMP280;66218;48.928;9.140;2023-05-10T01:43:55;97878.38;;;13.62
77223;BMP280;66218;48.928;9.140;2023-05-10T01:46:32;97871.50;;;13.69
77223;BMP280;66218;48.928;9.140;2023-05-10T01:49:00;97871.56;;;13.75
77223;BMP280;66218;48.928;9.140;2023-05-10T01:51:31;97876.38;;;13.69
77223;BMP280;66218;48.928;9.140;2023-05-10T01:54:00;97869.44;;;13.68
77223;BMP280;66218;48.928;9.140;2023-05-10T01:56:28;97862.50;;;13.71
77223;BMP280;66218;48.928;9.140;2023-05-10T01:58:55;97870.13;;;13.68
77223;BMP280;66218;48.928;9.140;2023-05-10T02:01:23;97864.56;;;13.64
77223;BMP280;66218;48.928;9.140;2023-05-10T02:03:51;97867.28;;;13.56
77223;BMP280;66218;48.928;9.140;2023-05-10T02:06:18;97869.38;;;13.55
77223;BMP280;66218;48.928;9.140;2023-05-10T02:08:45;97875.63;;;13.58
77223;BMP280;66218;48.928;9.140;2023-05-10T02:11:13;97886.69;;;13.56
77223;BMP280;66218;48.928;9.140;2023-05-10T02:13:39;97886.69;;;13.56
77223;BMP280;66218;48.928;9.140;2023-05-10T02:16:05;97875.56;;;13.50
77223;BMP280;66218;48.928;9.140;2023-05-10T02:18:32;97890.16;;;13.60
77223;BMP280;66218;48.928;9.140;2023-05-10T02:20:59;97890.16;;;13.60
77223;BMP280;66218;48.928;9.140;2023-05-10T02:23:25;97879.81;;;13.63
77223;BMP280;66218;48.928;9.140;2023-05-10T02:25:51;97888.16;;;13.69
77223;BMP280;66218;48.928;9.140;2023-05-10T02:28:18;97886.06;;;13.68
77223;BMP280;66218;48.928;9.140;2023-05-10T02:30:44;97885.41;;;13.71
77223;BMP280;66218;48.928;9.140;2023-05-10T02:33:11;97896.50;;;13.79
77223;BMP280;66218;48.928;9.140;2023-05-10T02:35:37;97896.50;;;13.79
77223;BMP280;66218;48.928;9.140;2023-05-10T02:38:03;97899.94;;;13.72
77223;BMP280;66218;48.928;9.140;2023-05-10T02:40:30;97914.56;;;13.84
77223;BMP280;66218;48.928;9.140;2023-05-10T02:42:57;97914.56;;;13.84
77223;BMP280;66218;48.928;9.140;2023-05-10T02:45:27;97905.56;;;13.86
77223;BMP280;66218;48.928;9.140;2023-05-10T02:47:53;97911.16;;;13.94
77223;BMP280;66218;48.928;9.140;2023-05-10T02:50:19;97911.16;;;13.94
77223;BMP280;66218;48.928;9.140;2023-05-10T02:52:51;97903.56;;;14.01
77223;BMP280;66218;48.928;9.140;2023-05-10T02:55:22;97915.34;;;14.03
77223;BMP280;66218;48.928;9.140;2023-05-10T02:57:52;97922.31;;;14.06
77223;BMP280;66218;48.928;9.140;2023-05-10T03:00:20;97914.66;;;14.05
77223;BMP280;66218;48.928;9.140;2023-05-10T03:02:45;97914.00;;;14.12
77223;BMP280;66218;48.928;9.140;2023-05-10T03:05:11;97910.56;;;14.14
77223;BMP280;66218;48.928;9.140;2023-05-10T03:07:36;97914.00;;;14.12
77223;BMP280;66218;48.928;9.140;2023-05-10T03:10:02;97926.53;;;14.19
77223;BMP280;66218;48.928;9.140;2023-05-10T03:18:48;97921.66;;;14.22
77223;BMP280;66218;48.928;9.140;2023-05-10T03:21:04;97930.03;;;14.26
77223;BMP280;66218;48.928;9.140;2023-05-10T03:23:35;97934.25;;;14.39
77223;BMP280;66218;48.928;9.140;2023-05-10T03:26:05;97934.25;;;14.39
77223;BMP280;66218;48.928;9.140;2023-05-10T03:28:34;97934.25;;;14.47
77223;BMP280;66218;48.928;9.140;2023-05-10T03:30:59;97934.25;;;14.47
77223;BMP280;66218;48.928;9.140;2023-05-10T03:33:25;97932.16;;;14.46
77223;BMP280;66218;48.928;9.140;2023-05-10T03:35:50;97932.91;;;14.48
77223;BMP280;66218;48.928;9.140;2023-05-10T03:38:16;97932.19;;;14.52
77223;BMP280;66218;48.928;9.140;2023-05-10T03:40:41;97934.25;;;14.47
77223;BMP280;66218;48.928;9.140;2023-05-10T03:43:06;97929.44;;;14.56
77223;BMP280;66218;48.928;9.140;2023-05-10T03:45:32;97944.00;;;14.59
77223;BMP280;66218;48.928;9.140;2023-05-10T03:47:58;97939.84;;;14.60
77223;BMP280;66218;48.928;9.140;2023-05-10T03:50:23;97944.03;;;14.63
77223;BMP280;66218;48.928;9.140;2023-05-10T03:52:48;97946.09;;;14.64
77223;BMP280;66218;48.928;9.140;2023-05-10T03:55:14;97936.41;;;14.61
77223;BMP280;66218;48.928;9.140;2023-05-10T03:57:39;97944.00;;;14.59
77223;BMP280;66218;48.928;9.140;2023-05-10T04:00:05;97937.75;;;14.50
77223;BMP280;66218;48.928;9.140;2023-05-10T04:02:31;97942.63;;;14.56
77223;BMP280;66218;48.928;9.140;2023-05-10T04:04:56;97946.78;;;14.59
77223;BMP280;66218;48.928;9.140;2023-05-10T04:07:21;97956.53;;;14.62
77223;BMP280;66218;48.928;9.140;2023-05-10T04:09:47;97960.72;;;14.67
77223;BMP280;66218;48.928;9.140;2023-05-10T04:12:12;97960.72;;;14.67
77223;BMP280;66218;48.928;9.140;2023-05-10T04:14:37;97954.44;;;14.62
77223;BMP280;66218;48.928;9.140;2023-05-10T04:17:03;97957.94;;;14.77
77223;BMP280;66218;48.928;9.140;2023-05-10T04:19:29;97957.94;;;14.77
77223;BMP280;66218;48.928;9.140;2023-05-10T04:21:55;97949.63;;;14.75
77223;BMP280;66218;48.928;9.140;2023-05-10T04:24:20;97953.09;;;14.79
77223;BMP280;66218;48.928;9.140;2023-05-10T04:26:46;97960.72;;;14.77
77223;BMP280;66218;48.928;9.140;2023-05-10T04:29:11;97969.78;;;14.79
77223;BMP280;66218;48.928;9.140;2023-05-10T04:31:36;97965.59;;;14.87
77223;BMP280;66218;48.928;9.140;2023-05-10T04:34:01;97973.91;;;14.76
77223;BMP280;66218;48.928;9.140;2023-05-10T04:36:27;97969.78;;;14.83
77223;BMP280;66218;48.928;9.140;2023-05-10T04:38:52;97970.47;;;14.86
77223;BMP280;66218;48.928;9.140;2023-05-10T04:41:18;97981.53;;;14.66
77223;BMP280;66218;48.928;9.140;2023-05-10T04:43:43;97981.53;;;14.66
77223;BMP280;66218;48.928;9.140;2023-05-10T04:46:08;97976.72;;;14.78
77223;BMP280;66218;48.928;9.140;2023-05-10T04:48:34;97980.88;;;14.86
77223;BMP280;66218;48.928;9.140;2023-05-10T04:50:59;97980.19;;;14.99
77223;BMP280;66218;48.928;9.140;2023-05-10T04:53:25;97987.13;;;14.88
77223;BMP280;66218;48.928;9.140;2023-05-10T04:55:50;97997.56;;;14.86
77223;BMP280;66218;48.928;9.140;2023-05-10T04:58:15;97996.84;;;14.93
77223;BMP280;66218;48.928;9.140;2023-05-10T05:00:41;97998.94;;;14.99
77223;BMP280;66218;48.928;9.140;2023-05-10T05:03:07;98006.63;;;15.06
77223;BMP280;66218;48.928;9.140;2023-05-10T05:05:32;98008.03;;;15.13
77223;BMP280;66218;48.928;9.140;2023-05-10T05:07:57;98004.56;;;15.21
77223;BMP280;66218;48.928;9.140;2023-05-10T05:10:23;98008.72;;;15.24
77223;BMP280;66218;48.928;9.140;2023-05-10T05:12:48;98011.47;;;15.12
77223;BMP280;66218;48.928;9.140;2023-05-10T05:15:13;98011.53;;;15.36
77223;BMP280;66218;48.928;9.140;2023-05-10T05:17:40;98014.28;;;15.51
77223;BMP280;66218;48.928;9.140;2023-05-10T05:20:06;98018.47;;;15.72
77223;BMP280;66218;48.928;9.140;2023-05-10T05:22:31;98026.09;;;15.86
77223;BMP280;66218;48.928;9.140;2023-05-10T05:24:56;98033.75;;;15.99
77223;BMP280;66218;48.928;9.140;2023-05-10T05:27:23;98032.28;;;16.25
77223;BMP280;66218;48.928;9.140;2023-05-10T05:29:52;98039.88;;;16.43
77223;BMP280;66218;48.928;9.140;2023-05-10T05:32:17;98032.91;;;16.42
77223;BMP280;66218;48.928;9.140;2023-05-10T05:34:46;98041.91;;;16.50
77223;BMP280;66218;48.928;9.140;2023-05-10T05:37:15;98049.53;;;16.62
77223;BMP280;66218;48.928;9.140;2023-05-10T05:39:46;98042.56;;;16.59
77223;BMP280;66218;48.928;9.140;2023-05-10T05:45:52;98046.22;;;16.21
77223;BMP280;66218;48.928;9.140;2023-05-10T05:48:26;98039.25;;;16.20
77223;BMP280;66218;48.928;9.140;2023-05-10T05:50:56;98049.00;;;16.17
77223;BMP280;66218;48.928;9.140;2023-05-10T05:53:22;98043.38;;;16.33
77223;BMP280;66218;48.928;9.140;2023-05-10T05:55:55;98057.22;;;16.57
77223;BMP280;66218;48.928;9.140;2023-05-10T05:58:24;98054.34;;;16.82
77223;BMP280;66218;48.928;9.140;2023-05-10T06:00:51;98058.44;;;16.95
77223;BMP280;66218;48.928;9.140;2023-05-10T06:03:17;98056.31;;;16.97
77223;BMP280;66218;48.928;9.140;2023-05-10T06:05:43;98055.66;;;16.93
77223;BMP280;66218;48.928;9.140;2023-05-10T06:08:08;98055.13;;;16.60
77223;BMP280;66218;48.928;9.140;2023-05-10T06:10:33;98054.97;;;16.92
77223;BMP280;66218;48.928;9.140;2023-05-10T06:12:59;98063.94;;;17.09
77223;BMP280;66218;48.928;9.140;2023-05-10T06:15:24;98064.66;;;17.04
77223;BMP280;66218;48.928;9.140;2023-05-10T06:17:50;98066.00;;;17.13
77223;BMP280;66218;48.928;9.140;2023-05-10T06:20:16;98064.53;;;17.22
77223;BMP280;66218;48.928;9.140;2023-05-10T06:22:41;98074.97;;;17.30
77223;BMP280;66218;48.928;9.140;2023-05-10T06:25:07;98072.94;;;17.20
77223;BMP280;66218;48.928;9.140;2023-05-10T06:27:33;98081.88;;;17.39
77223;BMP280;66218;48.928;9.140;2023-05-10T06:29:58;98079.88;;;17.21
77223;BMP280;66218;48.928;9.140;2023-05-10T06:32:24;98080.28;;;17.62
77223;BMP280;66218;48.928;9.140;2023-05-10T06:34:49;98081.47;;;17.85
77223;BMP280;66218;48.928;9.140;2023-05-10T06:37:15;98086.91;;;18.00
77223;BMP280;66218;48.928;9.140;2023-05-10T06:39:40;98088.88;;;18.15
77223;BMP280;66218;48.928;9.140;2023-05-10T06:42:05;98089.38;;;18.36
77223;BMP280;66218;48.928;9.140;2023-05-10T06:44:30;98096.59;;;18.11
77223;BMP280;66218;48.928;9.140;2023-05-10T06:46:56;98096.84;;;18.52
77223;BMP280;66218;48.928;9.140;2023-05-10T06:49:21;98098.94;;;18.51
77223;BMP280;66218;48.928;9.140;2023-05-10T06:51:47;98101.72;;;18.53
77223;BMP280;66218;48.928;9.140;2023-05-10T06:54:13;98096.66;;;18.68
77223;BMP280;66218;48.928;9.140;2023-05-10T06:56:38;98097.41;;;18.65
77223;BMP280;66218;48.928;9.140;2023-05-10T06:59:04;98092.81;;;18.94
77223;BMP280;66218;48.928;9.140;2023-05-10T07:01:29;98107.94;;;19.11
77223;BMP280;66218;48.928;9.140;2023-05-10T07:03:54;98106.53;;;19.12
77223;BMP280;66218;48.928;9.140;2023-05-10T07:06:19;98112.53;;;19.33
77223;BMP280;66218;48.928;9.140;2023-05-10T07:08:45;98110.31;;;19.42
77223;BMP280;66218;48.928;9.140;2023-05-10T07:11:10;98111.00;;;19.42
77223;BMP280;66218;48.928;9.140;2023-05-10T07:13:35;98115.91;;;19.85
77223;BMP280;66218;48.928;9.140;2023-05-10T07:16:01;98119.44;;;19.83
77223;BMP280;66218;48.928;9.140;2023-05-10T07:18:27;98118.13;;;19.78
77223;BMP280;66218;48.928;9.140;2023-05-10T07:20:52;98124.41;;;19.79
77223;BMP280;66218;48.928;9.140;2023-05-10T07:23:18;98123.47;;;19.93
77223;BMP280;66218;48.928;9.140;2023-05-10T07:25:48;98128.53;;;20.23
77223;BMP280;66218;48.928;9.140;2023-05-10T07:28:14;98131.84;;;20.32
77223;BMP280;66218;48.928;9.140;2023-05-10T07:30:39;98134.50;;;20.40
77223;BMP280;66218;48.928;9.140;2023-05-10T07:33:05;98122.78;;;20.66
77223;BMP280;66218;48.928;9.140;2023-05-10T07:35:30;98136.28;;;20.21
77223;BMP280;66218;48.928;9.140;2023-05-10T07:37:56;98137.00;;;20.19
77223;BMP280;66218;48.928;9.140;2023-05-10T07:40:21;98134.19;;;19.80
77223;BMP280;66218;48.928;9.140;2023-05-10T07:42:46;98131.50;;;20.13
77223;BMP280;66218;48.928;9.140;2023-05-10T07:45:12;98140.50;;;20.20
77223;BMP280;66218;48.928;9.140;2023-05-10T07:47:37;98137.22;;;20.07
77223;BMP280;66218;48.928;9.140;2023-05-10T07:50:02;98137.03;;;20.17
77223;BMP280;66218;48.928;9.140;2023-05-10T07:52:28;98134.81;;;19.87
77223;BMP280;66218;48.928;9.140;2023-05-10T07:54:53;98146.00;;;19.85
77223;BMP280;66218;48.928;9.140;2023-05-10T07:57:19;98146.50;;;19.97
77223;BMP280;66218;48.928;9.140;2023-05-10T07:59:44;98151.94;;;20.07
77223;BMP280;66218;48.928;9.140;2023-05-10T08:02:10;98152.88;;;19.92
77223;BMP280;66218;48.928;9.140;2023-05-10T08:04:35;98150.03;;;19.53
77223;BMP280;66218;48.928;9.140;2023-05-10T08:07:01;98160.03;;;20.24
77223;BMP280;66218;48.928;9.140;2023-05-10T08:09:26;98150.03;;;20.72
77223;BMP280;66218;48.928;9.140;2023-05-10T08:11:51;98160.66;;;20.65
77223;BMP280;66218;48.928;9.140;2023-05-10T08:14:17;98154.56;;;20.15
77223;BMP280;66218;48.928;9.140;2023-05-10T08:16:42;98157.84;;;20.28
77223;BMP280;66218;48.928;9.140;2023-05-10T08:19:07;98164.63;;;20.02
77223;BMP280;66218;48.928;9.140;2023-05-10T08:21:33;98158.94;;;20.06
77223;BMP280;66218;48.928;9.140;2023-05-10T08:24:01;98170.06;;;20.10
77223;BMP280;66218;48.928;9.140;2023-05-10T08:26:27;98170.34;;;19.94
77223;BMP280;66218;48.928;9.140;2023-05-10T08:28:52;98160.69;;;19.42
77223;BMP280;66218;48.928;9.140;2023-05-10T08:31:18;98165.97;;;19.13
77223;BMP280;66218;48.928;9.140;2023-05-10T08:33:43;98167.84;;;19.31
77223;BMP280;66218;48.928;9.140;2023-05-10T08:36:12;98171.94;;;19.83
77223;BMP280;66218;48.928;9.140;2023-05-10T08:38:39;98169.44;;;20.06
77223;BMP280;66218;48.928;9.140;2023-05-10T08:41:05;98173.66;;;20.46
77223;BMP280;66218;48.928;9.140;2023-05-10T08:43:31;98175.16;;;21.09
77223;BMP280;66218;48.928;9.140;2023-05-10T08:46:00;98183.25;;;21.25
77223;BMP280;66218;48.928;9.140;2023-05-10T08:48:29;98175.44;;;21.59
77223;BMP280;66218;48.928;9.140;2023-05-10T08:50:55;98186.06;;;21.23
77223;BMP280;66218;48.928;9.140;2023-05-10T08:53:26;98181.16;;;21.24
77223;BMP280;66218;48.928;9.140;2023-05-10T08:55:52;98177.13;;;21.74
77223;BMP280;66218;48.928;9.140;2023-05-10T08:58:19;98183.44;;;22.31
77223;BMP280;66218;48.928;9.140;2023-05-10T09:00:44;98185.88;;;21.91
77223;BMP280;66218;48.928;9.140;2023-05-10T09:03:10;98185.34;;;21.56
77223;BMP280;66218;48.928;9.140;2023-05-10T09:05:36;98185.94;;;20.63
77223;BMP280;66218;48.928;9.140;2023-05-10T09:08:01;98196.44;;;19.82
77223;BMP280;66218;48.928;9.140;2023-05-10T09:10:27;98193.97;;;19.13
77223;BMP280;66218;48.928;9.140;2023-05-10T09:12:57;98192.44;;;19.22
77223;BMP280;66218;48.928;9.140;2023-05-10T09:15:23;98199.75;;;18.95
77223;BMP280;66218;48.928;9.140;2023-05-10T09:17:55;98199.03;;;18.31
77223;BMP280;66218;48.928;9.140;2023-05-10T09:20:23;98198.19;;;17.56
77223;BMP280;66218;48.928;9.140;2023-05-10T09:22:59;98212.56;;;18.00
77223;BMP280;66218;48.928;9.140;2023-05-10T09:25:36;98212.31;;;18.30
77223;BMP280;66218;48.928;9.140;2023-05-10T09:28:08;98206.94;;;18.79
77223;BMP280;66218;48.928;9.140;2023-05-10T09:30:34;98213.22;;;19.37
77223;BMP280;66218;48.928;9.140;2023-05-10T09:33:03;98202.88;;;19.75
77223;BMP280;66218;48.928;9.140;2023-05-10T09:35:31;98206.06;;;20.35
77223;BMP280;66218;48.928;9.140;2023-05-10T09:38:02;98202.75;;;20.98
77223;BMP280;66218;48.928;9.140;2023-05-10T09:40:36;98214.75;;;21.28
77223;BMP280;66218;48.928;9.140;2023-05-10T09:43:11;98219.13;;;21.52
77223;BMP280;66218;48.928;9.140;2023-05-10T09:45:41;98216.31;;;21.19
77223;BMP280;66218;48.928;9.140;2023-05-10T09:48:07;98211.59;;;21.73
77223;BMP280;66218;48.928;9.140;2023-05-10T09:50:32;98215.03;;;22.04
77223;BMP280;66218;48.928;9.140;2023-05-10T09:53:04;98212.25;;;21.75
77223;BMP280;66218;48.928;9.140;2023-05-10T09:58:03;98216.94;;;22.39
77223;BMP280;66218;48.928;9.140;2023-05-10T10:00:42;98212.31;;;21.73
77223;BMP280;66218;48.928;9.140;2023-05-10T10:03:19;98228.09;;;22.16
77223;BMP280;66218;48.928;9.140;2023-05-10T10:05:45;98231.25;;;22.31
77223;BMP280;66218;48.928;9.140;2023-05-10T10:08:14;98215.78;;;21.74
77223;BMP280;66218;48.928;9.140;2023-05-10T10:10:42;98229.53;;;22.15
77223;BMP280;66218;48.928;9.140;2023-05-10T10:13:13;98230.59;;;22.28
77223;BMP280;66218;48.928;9.140;2023-05-10T10:15:42;98224.69;;;22.14
77223;BMP280;66218;48.928;9.140;2023-05-10T10:18:13;98219.88;;;22.35
77223;BMP280;66218;48.928;9.140;2023-05-10T10:20:39;98219.88;;;21.79
77223;BMP280;66218;48.928;9.140;2023-05-10T10:23:05;98221.31;;;22.07
77223;BMP280;66218;48.928;9.140;2023-05-10T10:25:38;98226.59;;;22.46
77223;BMP280;66218;48.928;9.140;2023-05-10T10:28:16;98224.31;;;22.26
77223;BMP280;66218;48.928;9.140;2023-05-10T10:30:46;98218.66;;;22.55
77223;BMP280;66218;48.928;9.140;2023-05-10T10:36:01;98218.25;;;22.17
77223;BMP280;66218;48.928;9.140;2023-05-10T10:41:28;98229.00;;;23.35
77223;BMP280;66218;48.928;9.140;2023-05-10T10:47:22;98221.81;;;22.67
77223;BMP280;66218;48.928;9.140;2023-05-10T10:52:42;98226.25;;;21.77
77223;BMP280;66218;48.928;9.140;2023-05-10T10:57:44;98232.34;;;20.91
77223;BMP280;66218;48.928;9.140;2023-05-10T11:08:44;98235.53;;;20.34
77223;BMP280;66218;48.928;9.140;2023-05-10T11:14:35;98229.38;;;20.97
77223;BMP280;66218;48.928;9.140;2023-05-10T11:17:27;98242.16;;;21.87
77223;BMP280;66218;48.928;9.140;2023-05-10T11:20:07;98237.56;;;21.73
77223;BMP280;66218;48.928;9.140;2023-05-10T11:22:49;98248.50;;;23.18
77223;BMP280;66218;48.928;9.140;2023-05-10T11:25:16;98237.09;;;22.74
77223;BMP280;66218;48.928;9.140;2023-05-10T11:28:04;98237.00;;;21.98
77223;BMP280;66218;48.928;9.140;2023-05-10T11:30:38;98235.41;;;21.76
77223;BMP280;66218;48.928;9.140;2023-05-10T11:33:05;98233.13;;;22.65
77223;BMP280;66218;48.928;9.140;2023-05-10T11:35:30;98231.97;;;22.56
77223;BMP280;66218;48.928;9.140;2023-05-10T11:37:55;98233.50;;;22.76
77223;BMP280;66218;48.928;9.140;2023-05-10T11:40:23;98231.50;;;22.48
77223;BMP280;66218;48.928;9.140;2023-05-10T11:42:50;98231.13;;;22.62
77223;BMP280;66218;48.928;9.140;2023-05-10T11:45:15;98238.94;;;22.03
77223;BMP280;66218;48.928;9.140;2023-05-10T11:47:41;98244.53;;;21.76
77223;BMP280;66218;48.928;9.140;2023-05-10T11:50:09;98244.59;;;22.30
77223;BMP280;66218;48.928;9.140;2023-05-10T11:52:37;98244.47;;;22.07
77223;BMP280;66218;48.928;9.140;2023-05-10T11:55:03;98250.94;;;22.83
77223;BMP280;66218;48.928;9.140;2023-05-10T11:57:28;98241.97;;;22.76
77223;BMP280;66218;48.928;9.140;2023-05-10T11:59:54;98260.50;;;23.85
77223;BMP280;66218;48.928;9.140;2023-05-10T12:02:21;98250.66;;;22.91
77223;BMP280;66218;48.928;9.140;2023-05-10T12:04:46;98253.13;;;22.26
77223;BMP280;66218;48.928;9.140;2023-05-10T12:07:12;98245.03;;;22.91
77223;BMP280;66218;48.928;9.140;2023-05-10T12:09:43;98250.59;;;23.42
77223;BMP280;66218;48.928;9.140;2023-05-10T12:12:08;98259.88;;;23.37
77223;BMP280;66218;48.928;9.140;2023-05-10T12:14:36;98264.13;;;22.88
77223;BMP280;66218;48.928;9.140;2023-05-10T12:17:02;98251.31;;;23.41
77223;BMP280;66218;48.928;9.140;2023-05-10T12:19:27;98252.13;;;23.83
77223;BMP280;66218;48.928;9.140;2023-05-10T12:21:52;98261.97;;;24.46
77223;BMP280;66218;48.928;9.140;2023-05-10T12:24:18;98261.88;;;24.48
77223;BMP280;66218;48.928;9.140;2023-05-10T12:26:45;98272.06;;;23.98
77223;BMP280;66218;48.928;9.140;2023-05-10T12:29:19;98267.78;;;23.78
77223;BMP280;66218;48.928;9.140;2023-05-10T12:31:59;98273.19;;;23.84
77223;BMP280;66218;48.928;9.140;2023-05-10T12:34:32;98281.41;;;22.74
77223;BMP280;66218;48.928;9.140;2023-05-10T12:36:58;98272.25;;;21.93
77223;BMP280;66218;48.928;9.140;2023-05-10T12:39:24;98272.66;;;22.03
77223;BMP280;66218;48.928;9.140;2023-05-10T12:41:50;98272.72;;;21.39
77223;BMP280;66218;48.928;9.140;2023-05-10T12:44:16;98273.16;;;21.83
77223;BMP280;66218;48.928;9.140;2023-05-10T12:46:42;98278.09;;;22.40
77223;BMP280;66218;48.928;9.140;2023-05-10T12:49:07;98271.13;;;23.14
77223;BMP280;66218;48.928;9.140;2023-05-10T12:51:32;98285.13;;;23.41
77223;BMP280;66218;48.928;9.140;2023-05-10T12:53:58;98270.84;;;22.74
77223;BMP280;66218;48.928;9.140;2023-05-10T12:56:23;98285.69;;;22.98
77223;BMP280;66218;48.928;9.140;2023-05-10T12:58:48;98282.91;;;22.71
77223;BMP280;66218;48.928;9.140;2023-05-10T13:01:14;98290.19;;;23.11
77223;BMP280;66218;48.928;9.140;2023-05-10T13:03:40;98280.31;;;22.88
77223;BMP280;66218;48.928;9.140;2023-05-10T13:06:05;98290.94;;;22.85
77223;BMP280;66218;48.928;9.140;2023-05-10T13:08:31;98279.53;;;22.37
77223;BMP280;66218;48.928;9.140;2023-05-10T13:10:59;98284.78;;;23.28
77223;BMP280;66218;48.928;9.140;2023-05-10T13:13:24;98284.16;;;23.26
77223;BMP280;66218;48.928;9.140;2023-05-10T13:15:50;98280.63;;;23.50
77223;BMP280;66218;48.928;9.140;2023-05-10T13:18:15;98276.09;;;22.89
77223;BMP280;66218;48.928;9.140;2023-05-10T13:20:40;98278.91;;;22.89
77223;BMP280;66218;48.928;9.140;2023-05-10T13:23:05;98280.16;;;22.94
77223;BMP280;66218;48.928;9.140;2023-05-10T13:25:31;98284.41;;;23.42
77223;BMP280;66218;48.928;9.140;2023-05-10T13:27:56;98279.41;;;23.20
77223;BMP280;66218;48.928;9.140;2023-05-10T13:30:22;98277.22;;;23.23
77223;BMP280;66218;48.928;9.140;2023-05-10T13:32:48;98275.16;;;23.44
77223;BMP280;66218;48.928;9.140;2023-05-10T13:35:14;98275.28;;;23.40
77223;BMP280;66218;48.928;9.140;2023-05-10T13:37:39;98277.75;;;23.52
77223;BMP280;66218;48.928;9.140;2023-05-10T13:40:05;98269.19;;;23.08
77223;BMP280;66218;48.928;9.140;2023-05-10T13:42:31;98275.53;;;23.09
77223;BMP280;66218;48.928;9.140;2023-05-10T13:44:58;98272.63;;;23.11
77223;BMP280;66218;48.928;9.140;2023-05-10T13:47:23;98276.31;;;22.27
77223;BMP280;66218;48.928;9.140;2023-05-10T13:49:49;98264.75;;;22.39
77223;BMP280;66218;48.928;9.140;2023-05-10T13:52:14;98265.38;;;22.68
77223;BMP280;66218;48.928;9.140;2023-05-10T13:54:39;98266.09;;;22.94
77223;BMP280;66218;48.928;9.140;2023-05-10T13:57:05;98258.72;;;22.80
77223;BMP280;66218;48.928;9.140;2023-05-10T13:59:31;98266.38;;;23.08
77223;BMP280;66218;48.928;9.140;2023-05-10T14:01:58;98256.00;;;22.24
77223;BMP280;66218;48.928;9.140;2023-05-10T14:04:23;98259.28;;;22.60
77223;BMP280;66218;48.928;9.140;2023-05-10T14:06:48;98255.03;;;21.78
77223;BMP280;66218;48.928;9.140;2023-05-10T14:09:14;98249.97;;;21.83
77223;BMP280;66218;48.928;9.140;2023-05-10T14:11:39;98259.84;;;22.10
77223;BMP280;66218;48.928;9.140;2023-05-10T14:14:08;98261.00;;;21.62
77223;BMP280;66218;48.928;9.140;2023-05-10T14:16:34;98256.66;;;21.98
77223;BMP280;66218;48.928;9.140;2023-05-10T14:18:59;98257.38;;;21.34
77223;BMP280;66218;48.928;9.140;2023-05-10T14:21:24;98254.63;;;21.65
77223;BMP280;66218;48.928;9.140;2023-05-10T14:23:50;98252.13;;;21.82
77223;BMP280;66218;48.928;9.140;2023-05-10T14:26:15;98256.34;;;22.10
77223;BMP280;66218;48.928;9.140;2023-05-10T14:28:41;98249.75;;;22.49
77223;BMP280;66218;48.928;9.140;2023-05-10T14:31:06;98255.47;;;21.89
77223;BMP280;66218;48.928;9.140;2023-05-10T14:33:32;98261.03;;;21.91
77223;BMP280;66218;48.928;9.140;2023-05-10T14:35:57;98249.22;;;21.86
77223;BMP280;66218;48.928;9.140;2023-05-10T14:38:22;98251.56;;;21.75
77223;BMP280;66218;48.928;9.140;2023-05-10T14:40:48;98251.56;;;22.33
77223;BMP280;66218;48.928;9.140;2023-05-10T14:43:14;98247.06;;;22.44
77223;BMP280;66218;48.928;9.140;2023-05-10T14:45:39;98260.03;;;22.58
77223;BMP280;66218;48.928;9.140;2023-05-10T14:48:05;98254.63;;;22.50
77223;BMP280;66218;48.928;9.140;2023-05-10T14:50:31;98253.00;;;22.84
77223;BMP280;66218;48.928;9.140;2023-05-10T14:52:57;98250.88;;;22.85
77223;BMP280;66218;48.928;9.140;2023-05-10T14:55:22;98253.66;;;22.87
77223;BMP280;66218;48.928;9.140;2023-05-10T14:57:47;98260.91;;;23.02
77223;BMP280;66218;48.928;9.140;2023-05-10T15:00:15;98259.19;;;23.36
77223;BMP280;66218;48.928;9.140;2023-05-10T15:02:41;98254.00;;;23.22
77223;BMP280;66218;48.928;9.140;2023-05-10T15:05:06;98253.66;;;22.87